Time;durP1;ratioP1;P1;durP2;ratioP2;P2;SDS_P1;SDS_P2;PMS_P1;PMS_P2;Temp;Humidity;BMP_temperature;BMP_pressure;BME280_temperature;BME280_humidity;BME280_pressure;Samples;Min_cycle;Max_cycle;Signal;HPM_P1;HPM_P2
2023/04/10 00:01:40;;;;;;;0.63;0.63;;;;;;;6.58;48.33;100124.13;4940316;29;20048;-82
2023/04/10 00:04:07;;;;;;;0.60;0.60;;;;;;;6.58;48.05;100118.75;4942368;29;20569;-81
2023/04/10 00:06:36;;;;;;;0.60;0.60;;;;;;;6.59;48.28;100123.13;4943386;28;20087;-83
2023/04/10 00:09:06;;;;;;;0.50;0.50;;;;;;;6.55;48.42;100121.81;4942235;29;20047;-81
2023/04/10 00:11:35;;;;;;;0.70;0.70;;;;;;;6.57;48.26;100122.47;4942016;29;20081;-82
2023/04/10 00:14:04;;;;;;;0.70;0.70;;;;;;;6.53;48.27;100116.63;4938431;29;20055;-82
2023/04/10 00:16:33;;;;;;;0.70;0.70;;;;;;;6.49;48.18;100116.19;4932516;29;20059;-82
2023/04/10 00:19:00;;;;;;;0.60;0.60;;;;;;;6.49;48.20;100124.25;4933570;29;20118;-82
2023/04/10 00:21:31;;;;;;;0.63;0.63;;;;;;;6.49;48.54;100120.75;4934104;29;20091;-86
2023/04/10 00:23:58;;;;;;;0.60;0.60;;;;;;;6.47;48.55;100128.16;4933913;29;20051;-80
2023/04/10 00:26:25;;;;;;;0.63;0.63;;;;;;;6.46;48.28;100121.13;4935717;29;20047;-83
2023/04/10 00:28:52;;;;;;;0.60;0.60;;;;;;;6.53;48.65;100124.69;4936832;29;20058;-82
2023/04/10 00:31:20;;;;;;;0.60;0.60;;;;;;;6.50;48.97;100128.59;4933913;29;20063;-82
2023/04/10 00:33:47;;;;;;;0.65;0.65;;;;;;;6.50;48.83;100125.06;4933643;29;20056;-82
2023/04/10 00:36:14;;;;;;;0.60;0.60;;;;;;;6.50;48.52;100123.22;4951394;29;20053;-82
2023/04/10 00:38:48;;;;;;;0.70;0.70;;;;;;;6.57;48.15;100127.84;4920395;29;20078;-82
2023/04/10 00:41:15;;;;;;;0.60;0.60;;;;;;;6.59;48.19;100117.75;4952716;29;20054;-82
2023/04/10 00:43:45;;;;;;;0.60;0.60;;;;;;;6.64;48.17;100121.50;4952627;29;20047;-81
2023/04/10 00:46:12;;;;;;;0.70;0.70;;;;;;;6.65;48.27;100125.03;4951583;29;20071;-81
2023/04/10 00:48:40;;;;;;;0.65;0.65;;;;;;;6.65;47.76;100123.16;4952473;29;20071;-81
2023/04/10 00:51:07;;;;;;;0.60;0.60;;;;;;;6.66;47.97;100129.34;4935781;29;20784;-82
2023/04/10 00:53:34;;;;;;;0.60;0.60;;;;;;;6.68;47.99;100132.69;4952411;29;20659;-82
2023/04/10 00:56:01;;;;;;;0.60;0.60;;;;;;;6.68;47.85;100124.63;4935026;29;20051;-81
2023/04/10 00:58:28;;;;;;;0.60;0.60;;;;;;;6.70;47.67;100134.16;4951115;29;20186;-82
2023/04/10 01:00:55;;;;;;;0.65;0.65;;;;;;;6.70;47.71;100133.31;4952330;29;20066;-82
2023/04/10 01:03:22;;;;;;;0.60;0.60;;;;;;;6.74;48.00;100148.03;4935278;29;20075;-81
2023/04/10 01:06:25;;;;;;;0.60;0.60;;;;;;;6.72;47.68;100142.84;4952340;29;20061;-81
2023/04/10 01:09:05;;;;;;;0.60;0.60;;;;;;;6.71;47.56;100140.38;4950235;29;20443;-82
2023/04/10 01:11:51;;;;;;;0.60;0.60;;;;;;;6.75;47.80;100136.25;4935746;29;20506;-81
2023/04/10 01:14:26;;;;;;;0.70;0.70;;;;;;;6.76;48.00;100137.94;4952755;29;20047;-80
2023/04/10 01:17:01;;;;;;;0.60;0.60;;;;;;;6.76;47.81;100129.03;4953519;28;20055;-81
2023/04/10 01:19:38;;;;;;;0.60;0.60;;;;;;;6.68;48.22;100121.94;4925742;29;20086;-81
2023/04/10 01:22:10;;;;;;;0.60;0.60;;;;;;;6.62;47.85;100128.91;4958855;29;20576;-81
2023/04/10 01:24:55;;;;;;;0.60;0.60;;;;;;;6.63;47.81;100127.06;4942768;29;20098;-81
2023/04/10 01:27:31;;;;;;;0.70;0.70;;;;;;;6.60;48.61;100130.94;4942161;29;20054;-81
2023/04/10 01:30:00;;;;;;;0.65;0.65;;;;;;;6.58;48.19;100130.31;4941288;29;20142;-81
2023/04/10 01:32:29;;;;;;;0.60;0.60;;;;;;;6.52;48.75;100131.09;4941837;29;20051;-81
2023/04/10 01:35:04;;;;;;;0.50;0.50;;;;;;;6.52;48.60;100136.44;4926036;29;20054;-82
2023/04/10 01:37:43;;;;;;;0.60;0.60;;;;;;;6.50;48.16;100131.25;4926770;29;20071;-81
2023/04/10 01:40:13;;;;;;;0.68;0.68;;;;;;;6.47;48.27;100134.34;4917910;29;20543;-82
2023/04/10 01:42:50;;;;;;;0.60;0.60;;;;;;;6.45;48.15;100130.19;4886608;29;20056;-79
2023/04/10 01:45:25;;;;;;;0.60;0.60;;;;;;;6.45;48.73;100136.38;4902853;29;20254;-82
2023/04/10 01:47:52;;;;;;;0.60;0.60;;;;;;;6.44;49.10;100124.00;4902222;29;20619;-82
2023/04/10 01:50:23;;;;;;;0.70;0.70;;;;;;;6.48;49.09;100127.09;4902436;29;20047;-81
2023/04/10 01:52:51;;;;;;;0.60;0.60;;;;;;;6.48;49.08;100124.44;4917745;29;20107;-81
2023/04/10 01:55:25;;;;;;;0.60;0.60;;;;;;;6.46;49.09;100130.00;4903427;29;20063;-81
2023/04/10 01:57:57;;;;;;;0.60;0.60;;;;;;;6.43;49.14;100129.53;4917762;29;20091;-82
2023/04/10 02:00:25;;;;;;;0.60;0.60;;;;;;;6.40;49.14;100128.06;4865275;29;20056;-82
2023/04/10 02:02:52;;;;;;;0.70;0.70;;;;;;;6.41;49.47;100136.97;4864913;29;20145;-82
2023/04/10 02:05:21;;;;;;;0.60;0.60;;;;;;;6.42;49.50;100139.44;4864914;29;20497;-81
2023/04/10 02:08:05;;;;;;;0.60;0.60;;;;;;;6.44;49.57;100133.91;4834626;29;20051;-83
2023/04/10 02:10:55;;;;;;;0.70;0.70;;;;;;;6.46;49.64;100131.84;4854406;29;20109;-82
2023/04/10 02:13:25;;;;;;;0.68;0.68;;;;;;;6.43;49.76;100138.44;4864856;29;20057;-82
2023/04/10 02:15:54;;;;;;;0.60;0.60;;;;;;;6.39;49.90;100137.13;4880038;29;20068;-82
2023/04/10 02:18:22;;;;;;;0.70;0.70;;;;;;;6.37;49.84;100133.81;4864849;29;20516;-81
2023/04/10 02:20:49;;;;;;;0.60;0.60;;;;;;;6.31;50.42;100139.94;4880688;29;20144;-80
2023/04/10 02:23:19;;;;;;;0.70;0.70;;;;;;;6.23;50.68;100129.34;4886220;29;20067;-81
2023/04/10 02:25:47;;;;;;;0.60;0.60;;;;;;;6.21;50.78;100140.25;4889256;29;20081;-81
2023/04/10 02:28:16;;;;;;;0.60;0.60;;;;;;;6.20;50.63;100140.41;4918006;29;20201;-82
2023/04/10 02:30:43;;;;;;;0.60;0.60;;;;;;;6.23;50.29;100148.94;4909588;29;20062;-81
2023/04/10 02:33:11;;;;;;;0.60;0.60;;;;;;;6.24;50.35;100139.03;4956053;29;20058;-82
2023/04/10 02:35:38;;;;;;;0.60;0.60;;;;;;;6.24;50.32;100139.03;4925187;29;20059;-82
2023/04/10 02:38:06;;;;;;;0.60;0.60;;;;;;;6.25;50.17;100140.69;4959907;29;20059;-81
2023/04/10 02:40:36;;;;;;;0.60;0.60;;;;;;;6.25;50.54;100140.69;4938370;29;20055;-81
2023/04/10 02:43:11;;;;;;;0.60;0.60;;;;;;;6.28;50.32;100134.97;4938211;29;20055;-81
2023/04/10 02:45:40;;;;;;;0.60;0.60;;;;;;;6.27;50.07;100131.44;4937694;29;20043;-82
2023/04/10 02:48:10;;;;;;;0.70;0.70;;;;;;;6.33;49.95;100135.22;4922217;29;20081;-81
2023/04/10 02:50:36;;;;;;;0.70;0.70;;;;;;;6.35;49.82;100135.84;4938562;29;20053;-82
2023/04/10 02:53:04;;;;;;;0.70;0.70;;;;;;;6.40;50.35;100136.09;4938632;29;20090;-81
2023/04/10 02:55:33;;;;;;;0.60;0.60;;;;;;;6.41;50.50;100134.28;4922480;29;20410;-81
2023/04/10 02:58:00;;;;;;;0.57;0.57;;;;;;;6.40;50.50;100136.09;4926047;29;20083;-81
2023/04/10 03:00:27;;;;;;;0.60;0.60;;;;;;;6.38;50.64;100142.69;4935612;29;20052;-80
2023/04/10 03:03:15;;;;;;;0.60;0.60;;;;;;;6.38;50.07;100140.00;4920899;29;20060;-82
2023/04/10 03:05:48;;;;;;;0.60;0.60;;;;;;;6.36;50.08;100142.06;4917942;29;20251;-82
2023/04/10 03:08:23;;;;;;;0.70;0.70;;;;;;;6.35;50.65;100141.22;4904686;29;20055;-82
2023/04/10 03:10:50;;;;;;;0.60;0.60;;;;;;;6.34;51.05;100147.59;4932737;29;20471;-82
2023/04/10 03:13:17;;;;;;;0.60;0.60;;;;;;;6.33;51.42;100147.78;4935304;29;20044;-82
2023/04/10 03:15:45;;;;;;;0.60;0.60;;;;;;;6.36;51.90;100148.25;4935101;29;20051;-81
2023/04/10 03:18:12;;;;;;;0.70;0.70;;;;;;;6.40;51.97;100140.66;4902638;29;20451;-82
2023/04/10 03:20:43;;;;;;;0.60;0.60;;;;;;;6.42;52.29;100142.13;4917919;29;20047;-82
2023/04/10 03:23:19;;;;;;;0.60;0.60;;;;;;;6.48;53.06;100140.53;4932302;29;20061;-82
2023/04/10 03:25:53;;;;;;;0.57;0.57;;;;;;;6.56;53.79;100128.84;4934985;29;20074;-83
2023/04/10 03:28:26;;;;;;;0.70;0.70;;;;;;;6.59;54.35;100137.34;4918332;29;20043;-83
2023/04/10 03:30:57;;;;;;;0.70;0.70;;;;;;;6.61;56.03;100132.63;4934783;29;20047;-83
2023/04/10 03:33:24;;;;;;;0.65;0.65;;;;;;;6.66;56.89;100132.88;4935078;29;20570;-82
2023/04/10 03:35:52;;;;;;;0.60;0.60;;;;;;;6.60;56.90;100122.09;4919716;29;20054;-82
2023/04/10 03:38:20;;;;;;;0.50;0.50;;;;;;;6.63;57.49;100129.75;4917993;29;20055;-83
2023/04/10 03:40:46;;;;;;;0.60;0.60;;;;;;;6.72;57.85;100136.66;4934295;29;20075;-83
2023/04/10 03:43:17;;;;;;;0.60;0.60;;;;;;;6.71;58.33;100124.28;4919522;29;20139;-84
2023/04/10 03:45:46;;;;;;;0.60;0.60;;;;;;;6.78;58.45;100135.88;4917496;29;20047;-84
2023/04/10 03:48:14;;;;;;;0.60;0.60;;;;;;;6.78;58.65;100125.13;4917817;29;20074;-84
2023/04/10 03:50:43;;;;;;;0.60;0.60;;;;;;;6.80;59.04;100123.09;4917343;29;20051;-83
2023/04/10 03:53:10;;;;;;;0.60;0.60;;;;;;;6.86;59.21;100126.84;4934793;29;20051;-84
2023/04/10 03:55:37;;;;;;;0.52;0.52;;;;;;;6.83;59.48;100122.72;4934523;29;20052;-83
2023/04/10 03:58:04;;;;;;;0.60;0.60;;;;;;;6.89;59.59;100121.94;4945934;29;20055;-82
2023/04/10 04:00:34;;;;;;;0.68;0.68;;;;;;;6.98;59.23;100119.94;4937009;29;20055;-83
2023/04/10 04:03:24;;;;;;;0.60;0.60;;;;;;;7.04;58.88;100123.69;4931905;29;20195;-82
2023/04/10 04:05:54;;;;;;;0.70;0.70;;;;;;;7.03;59.17;100114.84;4931767;29;20052;-82
2023/04/10 04:08:29;;;;;;;0.65;0.65;;;;;;;6.99;59.76;100115.41;4920762;29;20442;-82
2023/04/10 04:11:14;;;;;;;0.60;0.60;;;;;;;6.80;59.75;100111.53;4932036;29;20127;-83
2023/04/10 04:13:53;;;;;;;0.60;0.60;;;;;;;6.76;59.60;100121.84;4915923;29;20167;-81
2023/04/10 04:16:39;;;;;;;0.60;0.60;;;;;;;6.77;60.04;100123.50;4908547;29;20048;-82
2023/04/10 04:19:28;;;;;;;0.60;0.60;;;;;;;6.74;59.18;100129.25;4924436;29;20064;-85
2023/04/10 04:22:19;;;;;;;0.57;0.57;;;;;;;6.75;60.24;100130.91;4891694;29;20064;-84
2023/04/10 04:25:12;;;;;;;0.70;0.70;;;;;;;6.81;59.56;100124.78;4527695;29;10000373;-81
2023/04/10 04:28:01;;;;;;;0.70;0.70;;;;;;;6.92;59.22;100136.84;4848608;29;20587;-81
2023/04/10 04:30:31;;;;;;;0.70;0.70;;;;;;;6.96;60.02;100132.72;4847555;29;20048;-84
2023/04/10 04:33:25;;;;;;;0.70;0.70;;;;;;;6.82;60.36;100145.22;4867880;29;20090;-83
2023/04/10 04:36:23;;;;;;;0.60;0.60;;;;;;;6.63;61.17;100143.97;4815987;29;20054;-81
2023/04/10 04:39:29;;;;;;;0.80;0.80;;;;;;;6.53;61.36;100138.09;4810013;29;20222;-81
2023/04/10 04:42:08;;;;;;;0.70;0.70;;;;;;;6.48;61.84;100140.53;4798287;29;20047;-83
2023/04/10 04:44:56;;;;;;;0.70;0.70;;;;;;;6.61;61.14;100139.81;4817010;29;20050;-82
2023/04/10 04:48:08;;;;;;;0.60;0.60;;;;;;;6.68;60.99;100141.59;4817441;29;20078;-81
2023/04/10 04:50:54;;;;;;;0.70;0.70;;;;;;;6.72;60.56;100125.91;4793059;29;20141;-82
2023/04/10 04:54:00;;;;;;;0.70;0.70;;;;;;;6.92;60.63;100132.28;4797256;29;20208;-82
2023/04/10 04:56:27;;;;;;;0.70;0.70;;;;;;;7.07;60.08;100129.53;4783019;29;20051;-81
2023/04/10 04:59:20;;;;;;;0.70;0.70;;;;;;;7.12;59.21;100129.78;4826113;29;20061;-80
2023/04/10 05:02:23;;;;;;;0.63;0.63;;;;;;;7.13;58.09;100138.66;4830020;29;20050;-82
2023/04/10 05:05:11;;;;;;;0.70;0.70;;;;;;;7.14;56.89;100140.31;4825816;29;20169;-81
2023/04/10 05:07:51;;;;;;;0.70;0.70;;;;;;;7.24;56.32;100130.09;4804846;29;20492;-81
2023/04/10 05:10:57;;;;;;;0.70;0.70;;;;;;;7.33;55.87;100149.56;4797427;29;20051;-81
2023/04/10 05:13:39;;;;;;;0.68;0.68;;;;;;;7.46;55.41;100155.00;4764931;30;20166;-83
2023/04/10 05:16:26;;;;;;;0.60;0.60;;;;;;;7.60;54.86;100145.19;4788359;29;20063;-82
2023/04/10 05:19:09;;;;;;;0.70;0.70;;;;;;;7.68;54.41;100144.22;4783215;29;20059;-80
2023/04/10 05:21:57;;;;;;;0.60;0.60;;;;;;;7.73;54.60;100150.66;4782333;29;20676;-81
2023/04/10 05:24:59;;;;;;;0.70;0.70;;;;;;;7.71;54.73;100147.31;4773430;30;20094;-81
2023/04/10 05:27:59;;;;;;;0.68;0.68;;;;;;;7.73;55.37;100145.28;4764483;30;20087;-81
2023/04/10 05:30:40;;;;;;;0.60;0.60;;;;;;;7.76;55.50;100144.03;4782463;30;20105;-80
2023/04/10 05:33:26;;;;;;;0.70;0.70;;;;;;;7.77;56.11;100149.22;4782682;30;20055;-81
2023/04/10 05:36:13;;;;;;;0.60;0.60;;;;;;;7.89;56.07;100148.66;4811270;29;20057;-81
2023/04/10 05:38:59;;;;;;;0.60;0.60;;;;;;;8.01;55.71;100147.91;4873813;29;20099;-81
2023/04/10 05:41:44;;;;;;;0.60;0.60;;;;;;;8.10;56.20;100153.94;4919800;29;20078;-82
2023/04/10 05:44:24;;;;;;;0.70;0.70;;;;;;;8.17;56.07;100156.66;4950400;29;20415;-81
2023/04/10 05:47:24;;;;;;;0.60;0.60;;;;;;;8.33;55.57;100150.06;4951711;29;20147;-81
2023/04/10 05:50:09;;;;;;;0.60;0.60;;;;;;;8.44;54.89;100155.75;4951941;29;20066;-81
2023/04/10 05:52:55;;;;;;;0.70;0.70;;;;;;;8.43;54.38;100155.94;4951908;29;20069;-81
2023/04/10 05:55:50;;;;;;;0.70;0.70;;;;;;;8.58;54.33;100163.84;4941469;29;20055;-81
2023/04/10 05:58:42;;;;;;;0.70;0.70;;;;;;;8.64;54.45;100161.19;4874085;29;20151;-81
2023/04/10 06:01:21;;;;;;;0.60;0.60;;;;;;;8.80;54.13;100157.25;4874578;29;20082;-82
2023/04/10 06:03:56;;;;;;;0.70;0.70;;;;;;;8.96;53.76;100142.56;4860366;29;20064;-81
2023/04/10 06:06:25;;;;;;;0.70;0.70;;;;;;;9.21;53.18;100141.97;4861625;29;20052;-80
2023/04/10 06:08:55;;;;;;;0.60;0.60;;;;;;;9.49;53.11;100147.13;4876377;29;20053;-80
2023/04/10 06:11:22;;;;;;;0.60;0.60;;;;;;;9.57;52.54;100151.47;4877096;29;20424;-81
2023/04/10 06:13:52;;;;;;;0.60;0.60;;;;;;;9.50;52.57;100155.00;4861248;29;20059;-81
2023/04/10 06:16:25;;;;;;;0.60;0.60;;;;;;;9.44;53.11;100153.13;4877326;29;20084;-81
2023/04/10 06:18:53;;;;;;;0.50;0.50;;;;;;;9.38;53.47;100153.97;4867314;29;20064;-80
2023/04/10 06:21:23;;;;;;;0.60;0.60;;;;;;;9.50;53.04;100156.88;4861069;29;20505;-82
2023/04/10 06:24:01;;;;;;;0.60;0.60;;;;;;;9.53;53.07;100154.59;4876675;29;20059;-81
2023/04/10 06:26:29;;;;;;;0.60;0.60;;;;;;;9.59;53.08;100160.16;4846246;29;20057;-80
2023/04/10 06:28:56;;;;;;;0.60;0.60;;;;;;;9.72;52.78;100154.75;4846067;29;20060;-80
2023/04/10 06:31:24;;;;;;;0.60;0.60;;;;;;;9.67;52.70;100158.09;4861070;29;20076;-81
2023/04/10 06:33:55;;;;;;;0.60;0.60;;;;;;;9.49;53.12;100156.03;4876557;29;20049;-82
2023/04/10 06:36:22;;;;;;;0.60;0.60;;;;;;;9.54;53.15;100158.94;4918513;29;20549;-81
2023/04/10 06:39:01;;;;;;;0.60;0.60;;;;;;;9.62;53.14;100163.28;4953638;29;20062;-81
2023/04/10 06:41:35;;;;;;;0.60;0.60;;;;;;;9.79;52.77;100162.81;4921494;29;20059;-81
2023/04/10 06:44:14;;;;;;;0.50;0.50;;;;;;;9.81;52.70;100156.19;4953595;29;20055;-81
2023/04/10 06:46:45;;;;;;;0.60;0.60;;;;;;;9.99;52.74;100160.91;4954344;29;20065;-82
2023/04/10 06:49:12;;;;;;;0.52;0.52;;;;;;;9.99;52.79;100152.81;4954739;29;20050;-81
2023/04/10 06:51:39;;;;;;;0.60;0.60;;;;;;;10.06;52.58;100159.03;4953498;29;20055;-81
2023/04/10 06:54:06;;;;;;;0.50;0.50;;;;;;;10.03;53.40;100166.72;4953611;29;20043;-81
2023/04/10 06:56:33;;;;;;;0.50;0.50;;;;;;;9.96;53.75;100169.44;4957349;29;20055;-80
2023/04/10 06:59:00;;;;;;;0.50;0.50;;;;;;;9.92;53.83;100171.69;4936392;29;20056;-83
2023/04/10 07:01:27;;;;;;;0.50;0.50;;;;;;;9.98;53.63;100165.47;4936023;29;20057;-81
2023/04/10 07:03:55;;;;;;;0.55;0.55;;;;;;;10.01;53.39;100168.78;4935170;29;20043;-81
2023/04/10 07:06:22;;;;;;;0.50;0.50;;;;;;;10.15;52.93;100175.78;4936455;29;20533;-80
2023/04/10 07:08:50;;;;;;;0.50;0.50;;;;;;;10.27;50.65;100170.56;4935011;29;20056;-81
2023/04/10 07:11:35;;;;;;;0.60;0.60;;;;;;;10.39;50.30;100172.41;4934297;29;20166;-80
2023/04/10 07:14:02;;;;;;;0.50;0.50;;;;;;;10.43;51.81;100171.97;4935174;29;20059;-81
2023/04/10 07:16:33;;;;;;;0.60;0.60;;;;;;;10.48;49.84;100175.69;4934453;29;20064;-82
2023/04/10 07:19:00;;;;;;;0.50;0.50;;;;;;;10.61;50.31;100169.41;4934583;29;20056;-81
2023/04/10 07:21:27;;;;;;;0.60;0.60;;;;;;;10.82;48.96;100174.44;4917849;29;20047;-80
2023/04/10 07:23:54;;;;;;;0.60;0.60;;;;;;;10.98;48.25;100170.38;4934608;29;20054;-81
2023/04/10 07:26:21;;;;;;;0.50;0.50;;;;;;;11.19;48.79;100169.22;4934680;29;20051;-81
2023/04/10 07:28:56;;;;;;;0.50;0.50;;;;;;;11.41;47.98;100174.22;4931498;29;20059;-81
2023/04/10 07:31:26;;;;;;;0.50;0.50;;;;;;;11.39;47.13;100174.44;4915201;29;20052;-81
2023/04/10 07:33:56;;;;;;;0.50;0.50;;;;;;;11.31;48.53;100168.47;4917806;29;20056;-81
2023/04/10 07:36:23;;;;;;;0.55;0.55;;;;;;;11.34;48.94;100158.03;4934840;29;20051;-80
2023/04/10 07:38:50;;;;;;;0.60;0.60;;;;;;;11.36;49.19;100176.75;4933680;29;20507;-82
2023/04/10 07:41:17;;;;;;;0.50;0.50;;;;;;;11.39;48.67;100170.91;4934416;29;20055;-79
2023/04/10 07:43:45;;;;;;;0.60;0.60;;;;;;;11.60;47.91;100166.97;4934692;29;20071;-81
2023/04/10 07:46:13;;;;;;;0.60;0.60;;;;;;;11.82;47.70;100165.47;4934613;29;20472;-81
2023/04/10 07:48:40;;;;;;;0.60;0.60;;;;;;;11.88;46.52;100171.94;4933793;29;20070;-80
2023/04/10 07:51:08;;;;;;;0.50;0.50;;;;;;;12.02;46.11;100175.31;4932324;29;20047;-82
2023/04/10 07:53:37;;;;;;;0.50;0.50;;;;;;;12.17;45.83;100169.50;4934907;29;20079;-82
2023/04/10 07:56:05;;;;;;;0.50;0.50;;;;;;;12.23;45.33;100163.19;4936259;29;20111;-82
2023/04/10 07:58:33;;;;;;;0.50;0.50;;;;;;;12.26;45.52;100160.03;4950001;29;20054;-84
2023/04/10 08:01:00;;;;;;;0.50;0.50;;;;;;;12.24;45.17;100162.97;4954055;29;20102;-83
2023/04/10 08:03:27;;;;;;;0.50;0.50;;;;;;;12.19;45.47;100170.94;4953526;29;20446;-82
2023/04/10 08:06:01;;;;;;;0.50;0.50;;;;;;;12.05;45.58;100164.88;4956005;29;20525;-83
2023/04/10 08:08:28;;;;;;;0.60;0.60;;;;;;;11.87;45.90;100172.97;4939095;29;20079;-81
2023/04/10 08:10:55;;;;;;;0.50;0.50;;;;;;;11.77;46.77;100173.44;4953621;29;20047;-82
2023/04/10 08:13:22;;;;;;;0.50;0.50;;;;;;;11.42;46.62;100170.44;4952644;29;20047;-83
2023/04/10 08:15:49;;;;;;;0.50;0.50;;;;;;;11.25;46.88;100173.72;4953615;29;20055;-84
2023/04/10 08:18:16;;;;;;;0.50;0.50;;;;;;;11.30;47.20;100166.84;4953506;29;20047;-82
2023/04/10 08:20:44;;;;;;;0.50;0.50;;;;;;;11.35;47.19;100169.72;4952998;29;20047;-82
2023/04/10 08:23:11;;;;;;;0.60;0.60;;;;;;;11.35;46.72;100172.41;4952747;29;20043;-83
2023/04/10 08:25:48;;;;;;;0.60;0.60;;;;;;;11.40;46.83;100175.28;4948703;28;20121;-82
2023/04/10 08:28:15;;;;;;;0.60;0.60;;;;;;;11.55;46.68;100170.34;4951343;29;20058;-84
2023/04/10 08:30:44;;;;;;;0.50;0.50;;;;;;;11.68;46.71;100159.41;4953283;29;20062;-84
2023/04/10 08:33:15;;;;;;;0.50;0.50;;;;;;;11.67;46.65;100163.16;4941532;29;20468;-84
2023/04/10 08:35:50;;;;;;;0.50;0.50;;;;;;;11.63;47.03;100156.53;4951657;29;20063;-82
2023/04/10 08:38:17;;;;;;;0.50;0.50;;;;;;;11.55;47.02;100151.44;4946300;29;20101;-83
2023/04/10 08:40:44;;;;;;;0.50;0.50;;;;;;;11.64;46.92;100151.94;4951162;29;20070;-82
2023/04/10 08:43:11;;;;;;;0.52;0.52;;;;;;;11.74;46.86;100160.38;4936799;29;20062;-83
2023/04/10 08:45:41;;;;;;;0.60;0.60;;;;;;;11.74;46.56;100154.97;4953337;29;20054;-83
2023/04/10 08:48:12;;;;;;;0.60;0.60;;;;;;;11.99;46.34;100167.66;4953524;29;20047;-82
2023/04/10 08:50:44;;;;;;;0.60;0.60;;;;;;;12.17;46.09;100164.09;4935827;29;20510;-83
2023/04/10 08:53:14;;;;;;;0.50;0.50;;;;;;;12.22;46.19;100158.84;4935439;29;20110;-82
2023/04/10 08:55:41;;;;;;;0.60;0.60;;;;;;;12.41;46.02;100174.00;4952607;29;20094;-84
2023/04/10 08:58:12;;;;;;;0.50;0.50;;;;;;;12.48;45.19;100158.50;4935336;29;20051;-81
2023/04/10 09:00:39;;;;;;;0.60;0.60;;;;;;;12.45;44.95;100153.53;4920765;29;20137;-83
2023/04/10 09:03:25;;;;;;;0.50;0.50;;;;;;;12.44;44.94;100162.72;4952794;29;20515;-83
2023/04/10 09:06:12;;;;;;;0.50;0.50;;;;;;;12.44;44.47;100161.91;4956700;29;20118;-81
2023/04/10 09:08:39;;;;;;;0.60;0.60;;;;;;;12.49;45.07;100168.28;4933922;29;20154;-83
2023/04/10 09:11:06;;;;;;;0.60;0.60;;;;;;;12.36;45.13;100152.22;4918213;29;20056;-83
2023/04/10 09:13:42;;;;;;;0.50;0.50;;;;;;;12.28;45.74;100169.59;4931492;29;20100;-82
2023/04/10 09:16:12;;;;;;;0.50;0.50;;;;;;;12.32;45.86;100159.94;4933199;29;20518;-81
2023/04/10 09:18:50;;;;;;;0.50;0.50;;;;;;;12.39;45.79;100159.88;4933604;29;20060;-81
2023/04/10 09:24:05;;;;;;;0.50;0.50;;;;;;;12.50;44.48;100156.38;4934477;29;20094;-83
2023/04/10 09:26:34;;;;;;;0.50;0.50;;;;;;;12.46;44.06;100149.78;4932172;29;20118;-82
2023/04/10 09:31:52;;;;;;;0.57;0.57;;;;;;;12.72;44.13;100155.88;4599588;29;9999999;-82
2023/04/10 09:34:21;;;;;;;0.50;0.50;;;;;;;12.80;44.30;100150.13;4950141;29;20055;-82
2023/04/10 09:37:02;;;;;;;0.60;0.60;;;;;;;12.74;43.91;100153.78;4931014;29;20150;-84
2023/04/10 09:39:41;;;;;;;0.50;0.50;;;;;;;12.62;43.65;100156.44;4952311;28;20051;-84
2023/04/10 09:42:13;;;;;;;0.60;0.60;;;;;;;12.52;43.54;100135.31;4935059;29;20117;-84
2023/04/10 09:44:41;;;;;;;0.50;0.50;;;;;;;12.54;43.49;100146.75;4951949;29;20412;-82
2023/04/10 09:47:20;;;;;;;0.50;0.50;;;;;;;12.60;43.55;100144.19;4919355;29;20047;-82
2023/04/10 09:49:53;;;;;;;0.50;0.50;;;;;;;12.64;43.17;100150.78;4952135;29;20135;-83
2023/04/10 09:52:29;;;;;;;0.60;0.60;;;;;;;12.70;42.49;100152.56;4951855;29;20050;-82
2023/04/10 09:55:04;;;;;;;0.60;0.60;;;;;;;12.70;42.35;100152.56;4952246;29;20474;-82
2023/04/10 09:57:33;;;;;;;0.60;0.60;;;;;;;12.75;42.58;100148.09;4919719;29;20052;-81
2023/04/10 10:00:03;;;;;;;0.60;0.60;;;;;;;13.07;42.35;100141.59;4913783;29;20103;-82
2023/04/10 10:02:35;;;;;;;0.60;0.60;;;;;;;13.20;41.60;100136.78;4924162;29;20048;-81
2023/04/10 10:05:26;;;;;;;0.70;0.70;;;;;;;13.42;40.56;100125.41;4932827;29;20055;-81
2023/04/10 10:08:14;;;;;;;0.70;0.70;;;;;;;14.18;39.13;100126.22;4915582;29;20055;-82
2023/04/10 10:10:49;;;;;;;0.77;0.77;;;;;;;14.87;37.94;100136.22;4932361;29;20047;-81
2023/04/10 10:13:28;;;;;;;0.60;0.60;;;;;;;15.09;37.75;100134.44;4900333;29;20549;-84
2023/04/10 10:16:01;;;;;;;0.60;0.60;;;;;;;15.22;37.30;100137.88;4914904;29;20456;-83
2023/04/10 10:18:55;;;;;;;0.60;0.60;;;;;;;15.10;37.86;100140.69;4928264;29;20059;-84
2023/04/10 10:21:23;;;;;;;0.60;0.60;;;;;;;15.53;37.86;100118.25;4931430;29;20052;-84
2023/04/10 10:23:53;;;;;;;0.60;0.60;;;;;;;16.30;35.96;100126.59;4917331;29;20056;-83
2023/04/10 10:26:22;;;;;;;0.60;0.60;;;;;;;17.01;34.08;100121.88;4916191;29;20059;-82
2023/04/10 10:28:53;;;;;;;0.50;0.50;;;;;;;16.82;34.25;100124.19;4930469;29;20138;-82
2023/04/10 10:31:24;;;;;;;0.60;0.60;;;;;;;16.90;33.97;100112.81;4896324;29;20052;-82
2023/04/10 10:33:52;;;;;;;0.50;0.50;;;;;;;16.15;34.42;100117.16;4920536;29;20051;-83
2023/04/10 10:36:19;;;;;;;0.50;0.50;;;;;;;15.49;35.46;100113.53;4931023;29;20119;-82
2023/04/10 10:39:06;;;;;;;0.50;0.50;;;;;;;15.18;35.86;100115.81;4915610;29;20418;-83
2023/04/10 10:41:43;;;;;;;0.50;0.50;;;;;;;14.80;36.23;100109.19;4931912;29;20039;-82
2023/04/10 10:44:26;;;;;;;0.60;0.60;;;;;;;15.82;34.90;100109.94;4914881;29;20048;-81
2023/04/10 10:47:07;;;;;;;0.50;0.50;;;;;;;16.23;33.88;100114.03;4910481;29;20493;-83
2023/04/10 10:50:04;;;;;;;0.50;0.50;;;;;;;15.11;34.95;100109.69;4913715;29;20060;-83
2023/04/10 10:52:48;;;;;;;0.90;0.90;;;;;;;16.23;34.10;100103.13;4875346;29;20065;-82
2023/04/10 10:55:23;;;;;;;0.90;0.90;;;;;;;18.15;31.22;100097.78;4875418;29;20144;-82
2023/04/10 10:57:51;;;;;;;0.80;0.80;;;;;;;19.30;30.13;100109.41;4882593;29;20091;-81
2023/04/10 11:00:57;;;;;;;0.80;0.80;;;;;;;20.54;29.31;100096.94;4894388;29;20059;-82
2023/04/10 11:03:27;;;;;;;0.75;0.75;;;;;;;21.16;27.68;100102.78;4886731;29;20063;-82
2023/04/10 11:06:01;;;;;;;0.60;0.60;;;;;;;20.98;27.14;100096.09;4894551;29;20568;-83
2023/04/10 11:08:31;;;;;;;0.40;0.40;;;;;;;19.78;28.62;100090.72;4894506;29;20104;-82
2023/04/10 11:11:17;;;;;;;0.50;0.50;;;;;;;18.57;29.81;100106.91;4894695;29;20138;-82
2023/04/10 11:13:56;;;;;;;0.80;0.80;;;;;;;18.79;29.92;100103.97;4895230;29;20074;-82
2023/04/10 11:16:30;;;;;;;0.60;0.60;;;;;;;19.39;28.92;100091.31;4895345;29;20048;-82
2023/04/10 11:19:00;;;;;;;0.50;0.50;;;;;;;19.03;29.08;100094.09;4894273;29;20113;-81
2023/04/10 11:22:02;;;;;;;0.60;0.60;;;;;;;19.08;29.56;100087.00;4893090;29;20060;-83
2023/04/10 11:24:57;;;;;;;0.60;0.60;;;;;;;20.47;28.02;100083.53;4892176;29;20782;-82
2023/04/10 11:27:44;;;;;;;0.40;0.40;;;;;;;19.86;28.51;100081.94;4890711;29;20472;-83
2023/04/10 11:30:25;;;;;;;0.40;0.40;;;;;;;18.85;29.36;100089.19;4953613;29;20051;-82
2023/04/10 11:32:53;;;;;;;0.40;0.40;;;;;;;18.40;29.88;100088.00;4953955;29;20051;-82
2023/04/10 11:35:21;;;;;;;0.50;0.50;;;;;;;18.35;29.91;100085.25;4937395;29;20056;-83
2023/04/10 11:40:34;;;;;;;0.40;0.40;;;;;;;18.32;30.14;100074.88;4953907;29;20477;-83
2023/04/10 11:43:13;;;;;;;0.45;0.45;;;;;;;18.16;30.42;100071.28;4941532;29;20506;-82
2023/04/10 11:45:41;;;;;;;0.40;0.40;;;;;;;17.86;31.01;100081.00;4932451;29;20548;-81
2023/04/10 11:48:08;;;;;;;0.40;0.40;;;;;;;17.47;31.32;100081.31;4956774;29;20047;-84
2023/04/10 11:50:35;;;;;;;0.40;0.40;;;;;;;16.91;32.00;100067.28;4953380;29;20047;-83
2023/04/10 11:53:17;;;;;;;0.70;0.70;;;;;;;17.14;31.82;100082.44;4952006;29;20050;-83
2023/04/10 11:55:44;;;;;;;0.40;0.40;;;;;;;16.07;32.81;100079.50;4932175;29;20141;-86
2023/04/10 11:58:27;;;;;;;0.40;0.40;;;;;;;15.91;33.36;100075.78;4953337;29;20530;-81
2023/04/10 12:01:00;;;;;;;0.40;0.40;;;;;;;15.68;33.88;100073.28;4954304;28;20055;-83
2023/04/10 12:03:39;;;;;;;0.50;0.50;;;;;;;15.31;34.20;100071.13;4939368;29;20054;-82
2023/04/10 12:06:09;;;;;;;0.40;0.40;;;;;;;15.11;34.65;100077.91;4952395;29;20043;-83
2023/04/10 12:08:38;;;;;;;0.40;0.40;;;;;;;14.87;35.16;100065.56;4936093;29;20055;-82
2023/04/10 12:11:07;;;;;;;0.50;0.50;;;;;;;14.75;35.33;100062.91;4952656;29;20055;-83